createdAt,value
2017-11-16T00:00:31.852Z,11.65
2017-11-16T00:02:58.619Z,11.60
2017-11-16T00:05:26.613Z,10.90
2017-11-16T00:07:54.816Z,13.52
2017-11-16T00:10:21.697Z,12.02
2017-11-16T00:12:48.593Z,13.65
2017-11-16T00:15:15.563Z,10.43
2017-11-16T00:17:41.821Z,12.98
2017-11-16T00:20:08.609Z,11.25
2017-11-16T00:22:36.128Z,11.55
2017-11-16T00:25:02.767Z,12.40
2017-11-16T00:27:30.365Z,11.05
2017-11-16T00:29:58.151Z,16.75
2017-11-16T00:32:25.496Z,12.50
2017-11-16T00:34:51.956Z,12.25
2017-11-16T00:37:19.363Z,13.38
2017-11-16T00:39:47.024Z,14.20
2017-11-16T00:42:14.619Z,14.48
2017-11-16T00:44:44.051Z,12.80
2017-11-16T00:47:10.556Z,13.50
2017-11-16T00:49:38.094Z,13.40
2017-11-16T00:52:04.329Z,12.90
2017-11-16T01:04:22.040Z,12.60
2017-11-16T01:06:48.341Z,12.37
2017-11-16T01:09:15.296Z,13.60
2017-11-16T01:11:43.409Z,10.68
2017-11-16T01:14:10.298Z,11.48
2017-11-16T01:16:37.440Z,14.02
2017-11-16T01:19:04.399Z,11.68
2017-11-16T01:21:31.583Z,11.57
2017-11-16T01:23:58.503Z,9.70
2017-11-16T01:26:26.323Z,11.27
2017-11-16T01:28:52.817Z,13.60
2017-11-16T01:31:19.928Z,10.98
2017-11-16T01:33:48.190Z,12.05
2017-11-16T01:36:16.137Z,12.27
2017-11-16T01:38:44.091Z,13.95
2017-11-16T01:41:10.969Z,11.43
2017-11-16T01:43:37.160Z,12.95
2017-11-16T01:46:05.275Z,13.82
2017-11-16T01:48:32.241Z,11.10
2017-11-16T01:50:58.887Z,11.07
2017-11-16T01:53:25.735Z,11.40
2017-11-16T01:55:51.964Z,9.80
2017-11-16T02:11:18.967Z,9.73
2017-11-16T02:13:47.558Z,11.98
2017-11-16T02:16:16.728Z,11.10
2017-11-16T02:18:44.753Z,11.98
2017-11-16T02:21:12.621Z,11.48
2017-11-16T02:23:38.955Z,8.68
2017-11-16T02:26:05.718Z,10.30
2017-11-16T02:28:32.274Z,11.20
2017-11-16T02:31:00.135Z,11.75
2017-11-16T02:33:27.693Z,10.38
2017-11-16T02:35:54.489Z,10.70
2017-11-16T02:38:20.916Z,9.70
2017-11-16T02:40:47.169Z,11.50
2017-11-16T02:43:14.186Z,11.15
2017-11-16T02:45:40.835Z,10.05
2017-11-16T02:48:08.619Z,8.35
2017-11-16T02:50:35.869Z,9.90
2017-11-16T02:53:03.109Z,9.68
2017-11-16T02:55:30.124Z,9.27
2017-11-16T02:57:58.301Z,10.02
2017-11-16T03:00:25.388Z,10.10
2017-11-16T03:02:51.630Z,9.93
2017-11-16T03:05:17.906Z,9.35
2017-11-16T03:07:44.184Z,8.18
2017-11-16T03:10:10.415Z,9.25
2017-11-16T03:12:36.715Z,9.23
2017-11-16T03:15:02.999Z,9.98
2017-11-16T03:17:29.991Z,9.73
2017-11-16T03:19:57.136Z,9.48
2017-11-16T03:22:24.949Z,8.73
2017-11-16T03:24:52.600Z,9.95
2017-11-16T03:27:18.922Z,10.10
2017-11-16T03:29:47.454Z,8.18
2017-11-16T03:32:13.832Z,7.45
2017-11-16T03:34:40.893Z,10.27
2017-11-16T03:37:07.131Z,11.40
2017-11-16T03:39:33.885Z,11.68
2017-11-16T03:42:01.157Z,8.80
2017-11-16T03:44:28.259Z,8.98
2017-11-16T03:46:56.126Z,9.20
2017-11-16T03:49:22.774Z,9.60
2017-11-16T03:51:50.809Z,9.10
2017-11-16T03:54:17.291Z,7.90
2017-11-16T03:56:45.085Z,9.50
2017-11-16T03:59:12.485Z,8.65
2017-11-16T04:01:40.934Z,9.00
2017-11-16T04:04:08.093Z,9.50
2017-11-16T04:06:34.604Z,9.30
2017-11-16T04:09:01.796Z,8.70
2017-11-16T04:11:28.200Z,7.93
2017-11-16T04:13:54.594Z,9.73
2017-11-16T04:16:22.756Z,8.48
2017-11-16T04:18:49.740Z,8.38
2017-11-16T04:21:15.957Z,9.40
2017-11-16T04:23:43.184Z,8.48
2017-11-16T04:26:10.332Z,9.15
2017-11-16T04:28:37.295Z,8.05
2017-11-16T04:31:06.681Z,8.43
2017-11-16T04:33:34.870Z,8.43
2017-11-16T04:36:02.116Z,8.73
2017-11-16T04:38:28.646Z,8.73
2017-11-16T04:40:56.295Z,9.35
2017-11-16T04:43:23.246Z,8.38
2017-11-16T04:45:51.610Z,10.70
2017-11-16T04:48:18.615Z,8.38
2017-11-16T05:00:35.481Z,7.50
2017-11-16T05:03:01.759Z,7.55
2017-11-16T05:05:28.148Z,7.35
2017-11-16T05:07:54.943Z,6.85
2017-11-16T05:10:21.717Z,9.23
2017-11-16T05:12:48.731Z,7.43
2017-11-16T05:15:15.707Z,8.02
2017-11-16T05:17:43.468Z,9.80
2017-11-16T05:20:09.704Z,7.97
2017-11-16T05:22:36.852Z,8.00
2017-11-16T05:25:03.097Z,8.90
2017-11-16T05:27:29.725Z,7.25
2017-11-16T05:29:55.947Z,7.15
2017-11-16T05:32:22.245Z,6.50
2017-11-16T05:34:50.080Z,7.65
2017-11-16T05:37:17.838Z,9.88
2017-11-16T05:39:44.852Z,7.10
2017-11-16T05:42:11.099Z,8.90
2017-11-16T05:44:38.308Z,8.82
2017-11-16T05:47:06.077Z,10.15
2017-11-16T05:49:33.094Z,8.15
2017-11-16T05:52:01.310Z,9.88
2017-11-16T05:54:27.622Z,10.52
2017-11-16T05:56:54.100Z,9.07
2017-11-16T05:59:21.662Z,9.60
2017-11-16T06:01:49.607Z,8.45
2017-11-16T06:04:16.172Z,8.38
2017-11-16T06:06:43.188Z,9.10
2017-11-16T06:09:09.599Z,7.95
2017-11-16T06:11:36.634Z,7.25
2017-11-16T06:14:04.637Z,9.73
2017-11-16T06:16:31.454Z,10.93
2017-11-16T06:18:58.144Z,7.68
2017-11-16T06:21:25.412Z,10.73
2017-11-16T06:23:53.029Z,9.68
2017-11-16T06:26:19.650Z,9.23
2017-11-16T06:28:46.769Z,7.85
2017-11-16T06:31:15.079Z,8.73
2017-11-16T06:33:41.847Z,8.80
2017-11-16T06:36:08.667Z,10.57
2017-11-16T06:38:35.507Z,11.60
2017-11-16T06:41:02.646Z,9.15
2017-11-16T06:43:29.910Z,9.90
2017-11-16T06:45:56.971Z,10.43
2017-11-16T06:48:23.505Z,6.57
2017-11-16T06:50:51.162Z,8.07
2017-11-16T06:53:17.499Z,9.80
2017-11-16T06:55:44.375Z,7.95
2017-11-16T06:58:10.830Z,8.45
2017-11-16T07:00:38.433Z,9.40
2017-11-16T07:03:05.869Z,9.48
2017-11-16T07:05:32.334Z,7.70
2017-11-16T07:07:59.413Z,7.18
2017-11-16T07:10:25.662Z,9.30
2017-11-16T07:12:51.870Z,9.43
2017-11-16T07:15:18.992Z,9.30
2017-11-16T07:17:46.761Z,7.87
2017-11-16T07:20:13.341Z,7.87
2017-11-16T07:22:40.431Z,11.70
2017-11-16T07:25:07.106Z,10.55
2017-11-16T07:27:34.064Z,9.90
2017-11-16T07:30:01.402Z,8.68
2017-11-16T07:32:28.970Z,9.50
2017-11-16T07:34:55.938Z,7.97
2017-11-16T07:37:22.812Z,10.13
2017-11-16T07:39:50.654Z,8.75
2017-11-16T07:42:23.114Z,10.75
2017-11-16T07:44:49.494Z,10.68
2017-11-16T07:47:15.841Z,10.95
2017-11-16T07:49:42.236Z,9.80
2017-11-16T07:52:09.551Z,9.77
2017-11-16T07:54:37.250Z,10.90
2017-11-16T07:57:05.904Z,10.82
2017-11-16T07:59:32.302Z,11.77
2017-11-16T08:01:59.135Z,15.95
2017-11-16T08:04:26.065Z,12.25
2017-11-16T08:06:53.349Z,9.85
2017-11-16T08:09:20.743Z,12.65
2017-11-16T08:11:47.730Z,11.20
2017-11-16T08:14:14.680Z,12.93
2017-11-16T08:16:41.635Z,10.60
2017-11-16T08:19:08.180Z,9.90
2017-11-16T08:21:35.582Z,10.85
2017-11-16T08:24:03.236Z,10.27
2017-11-16T08:26:29.989Z,10.60
2017-11-16T08:28:57.089Z,9.70
2017-11-16T08:31:25.138Z,9.65
2017-11-16T08:33:52.055Z,11.02
2017-11-16T08:36:18.589Z,10.48
2017-11-16T08:38:46.129Z,11.02
2017-11-16T08:41:13.902Z,9.88
2017-11-16T08:43:40.262Z,8.40
2017-11-16T08:46:07.400Z,8.50
2017-11-16T08:48:34.745Z,10.30
2017-11-16T08:51:01.901Z,8.80
2017-11-16T08:53:28.806Z,10.27
2017-11-16T08:55:55.941Z,11.15
2017-11-16T08:58:23.116Z,10.13
2017-11-16T09:00:49.815Z,10.50
2017-11-16T09:03:17.410Z,9.95
2017-11-16T09:05:44.301Z,9.45
2017-11-16T09:08:10.726Z,10.07
2017-11-16T09:10:37.682Z,9.77
2017-11-16T09:13:03.999Z,10.88
2017-11-16T09:15:31.042Z,10.10
2017-11-16T09:17:57.986Z,10.63
2017-11-16T09:20:24.604Z,10.20
2017-11-16T09:22:52.716Z,10.75
2017-11-16T09:25:19.073Z,10.50
2017-11-16T09:27:46.777Z,10.98
2017-11-16T09:30:13.102Z,11.32
2017-11-16T09:32:39.426Z,13.68
2017-11-16T09:35:06.301Z,11.07
2017-11-16T09:37:32.614Z,11.45
2017-11-16T09:39:59.618Z,10.90
2017-11-16T09:42:26.017Z,13.30
2017-11-16T09:44:53.019Z,13.30
2017-11-16T09:47:20.359Z,12.45
2017-11-16T09:49:47.607Z,12.27
2017-11-16T09:52:14.481Z,10.63
2017-11-16T09:54:41.630Z,11.55
2017-11-16T09:57:08.609Z,12.40
2017-11-16T09:59:35.520Z,10.80
2017-11-16T10:02:02.476Z,10.18
2017-11-16T10:04:28.810Z,9.45
2017-11-16T10:06:55.778Z,10.15
2017-11-16T10:09:22.674Z,9.73
2017-11-16T10:11:50.116Z,10.05
2017-11-16T10:14:17.281Z,10.85
2017-11-16T10:16:43.594Z,9.40
2017-11-16T10:19:09.960Z,10.95
2017-11-16T10:21:36.266Z,11.43
2017-11-16T10:24:03.166Z,8.90
2017-11-16T10:26:30.239Z,11.15
2017-11-16T10:28:57.099Z,9.32
2017-11-16T10:31:23.419Z,9.00
2017-11-16T10:33:50.594Z,10.93
2017-11-16T10:36:18.394Z,9.18
2017-11-16T10:38:45.099Z,10.90
2017-11-16T10:41:13.238Z,10.35
2017-11-16T10:43:39.885Z,11.63
2017-11-16T10:46:07.231Z,10.63
2017-11-16T10:48:33.622Z,11.18
2017-11-16T10:51:00.576Z,10.20
2017-11-16T10:53:28.142Z,11.05
2017-11-16T10:55:56.217Z,11.65
2017-11-16T10:58:23.647Z,11.10
2017-11-16T11:00:50.731Z,12.20
2017-11-16T11:03:18.736Z,10.73
2017-11-16T11:05:45.069Z,10.45
2017-11-16T11:08:11.494Z,9.88
2017-11-16T11:10:38.122Z,11.00
2017-11-16T11:13:04.571Z,9.38
2017-11-16T11:15:32.168Z,11.68
2017-11-16T11:17:59.117Z,11.25
2017-11-16T11:20:26.729Z,9.93
2017-11-16T11:22:53.756Z,11.02
2017-11-16T11:25:20.619Z,10.48
2017-11-16T11:27:47.763Z,10.35
2017-11-16T11:30:15.775Z,9.93
2017-11-16T11:32:42.085Z,12.37
2017-11-16T11:35:08.922Z,12.20
2017-11-16T11:37:35.894Z,11.40
2017-11-16T11:40:02.866Z,10.50
2017-11-16T11:42:30.706Z,11.25
2017-11-16T11:44:57.037Z,9.05
2017-11-16T11:47:23.341Z,8.20
2017-11-16T11:49:49.850Z,11.00
2017-11-16T12:08:31.970Z,13.15
2017-11-16T12:10:58.868Z,12.55
2017-11-16T12:13:26.057Z,13.18
2017-11-16T12:15:53.368Z,12.05
2017-11-16T12:18:21.009Z,13.15
2017-11-16T12:20:47.343Z,13.05
2017-11-16T12:23:14.590Z,14.80
2017-11-16T12:25:41.914Z,14.30
2017-11-16T12:28:08.933Z,16.17
2017-11-16T12:30:35.319Z,13.68
2017-11-16T12:33:02.123Z,12.75
2017-11-16T12:35:29.422Z,12.75
2017-11-16T12:37:56.562Z,13.82
2017-11-16T12:40:23.908Z,12.48
2017-11-16T12:42:51.074Z,13.60
2017-11-16T12:45:17.753Z,12.93
2017-11-16T12:47:46.042Z,13.48
2017-11-16T12:50:12.945Z,11.10
2017-11-16T12:52:40.075Z,11.82
2017-11-16T12:55:06.588Z,13.07
2017-11-16T12:57:33.959Z,13.25
2017-11-16T13:09:45.968Z,12.50
2017-11-16T13:12:13.035Z,12.80
2017-11-16T13:14:39.409Z,13.30
2017-11-16T13:17:06.713Z,12.32
2017-11-16T13:19:33.344Z,13.20
2017-11-16T13:22:00.694Z,13.23
2017-11-16T13:24:28.086Z,13.50
2017-11-16T13:26:55.090Z,13.07
2017-11-16T13:29:24.534Z,14.02
2017-11-16T13:31:50.897Z,12.32
2017-11-16T13:34:18.051Z,13.65
2017-11-16T13:36:45.718Z,13.18
2017-11-16T13:39:12.950Z,13.62
2017-11-16T13:41:39.235Z,12.23
2017-11-16T13:44:05.823Z,13.77
2017-11-16T13:46:32.927Z,12.75
2017-11-16T13:48:59.422Z,11.25
2017-11-16T13:51:26.495Z,10.48
2017-11-16T13:53:52.954Z,14.68
2017-11-16T13:56:19.289Z,12.70
2017-11-16T13:58:46.131Z,11.45
2017-11-16T14:01:12.447Z,13.55
2017-11-16T14:03:39.464Z,13.07
2017-11-16T14:06:06.567Z,12.68
2017-11-16T14:08:33.458Z,12.37
2017-11-16T14:11:00.775Z,11.75
2017-11-16T14:13:27.652Z,11.60
2017-11-16T14:15:55.475Z,14.40
2017-11-16T14:18:21.854Z,11.00
2017-11-16T14:20:48.501Z,14.25
2017-11-16T14:23:15.943Z,13.65
2017-11-16T14:25:43.242Z,10.52
2017-11-16T14:28:10.259Z,11.30
2017-11-16T14:30:36.919Z,11.65
2017-11-16T14:33:04.066Z,10.35
2017-11-16T14:35:30.422Z,11.30
2017-11-16T14:37:56.893Z,13.55
2017-11-16T14:40:24.111Z,9.70
2017-11-16T14:42:50.556Z,12.00
2017-11-16T14:45:18.306Z,12.32
2017-11-16T14:47:45.277Z,10.02
2017-11-16T14:50:12.537Z,11.40
2017-11-16T14:52:38.905Z,11.45
2017-11-16T14:55:05.897Z,11.27
2017-11-16T14:57:32.276Z,10.95
2017-11-16T14:59:59.233Z,10.45
2017-11-16T15:02:27.073Z,12.57
2017-11-16T15:04:53.406Z,11.82
2017-11-16T15:07:19.958Z,11.77
2017-11-16T15:09:46.872Z,14.25
2017-11-16T15:12:14.591Z,11.30
2017-11-16T15:14:40.895Z,10.88
2017-11-16T15:17:07.539Z,13.20
2017-11-16T15:19:34.982Z,11.38
2017-11-16T15:22:02.274Z,12.50
2017-11-16T15:24:29.356Z,12.10
2017-11-16T15:26:55.708Z,9.60
2017-11-16T15:29:22.034Z,11.90
2017-11-16T15:31:48.607Z,13.40
2017-11-16T15:34:15.198Z,10.93
2017-11-16T15:36:41.657Z,14.18
2017-11-16T15:39:08.549Z,13.62
2017-11-16T15:44:08.150Z,13.43
2017-11-16T15:46:34.590Z,13.10
2017-11-16T15:49:02.644Z,11.68
2017-11-16T15:51:29.787Z,12.30
2017-11-16T15:53:57.290Z,12.25
2017-11-16T15:56:24.922Z,11.50
2017-11-16T15:58:53.180Z,12.00
2017-11-16T16:01:20.455Z,13.07
2017-11-16T16:03:47.562Z,13.62
2017-11-16T16:06:14.026Z,11.95
2017-11-16T16:08:40.876Z,12.90
2017-11-16T16:11:09.141Z,13.90
2017-11-16T16:13:35.531Z,11.85
2017-11-16T16:16:01.892Z,12.77
2017-11-16T16:18:28.236Z,11.98
2017-11-16T16:20:55.192Z,12.57
2017-11-16T16:23:23.357Z,13.30
2017-11-16T16:25:50.979Z,13.45
2017-11-16T16:28:17.478Z,12.50
2017-11-16T16:30:43.724Z,13.38
2017-11-16T16:33:11.218Z,12.77
2017-11-16T16:35:38.462Z,14.02
2017-11-16T16:38:05.219Z,21.12
2017-11-16T16:40:32.032Z,37.72
2017-11-16T16:42:58.548Z,34.33
2017-11-16T16:45:25.881Z,32.95
2017-11-16T16:47:52.174Z,26.75
2017-11-16T16:50:18.421Z,25.30
2017-11-16T16:52:44.672Z,22.67
2017-11-16T16:55:10.955Z,20.27
2017-11-16T16:57:37.248Z,15.82
2017-11-16T17:00:03.689Z,15.45
2017-11-16T17:02:31.348Z,13.38
2017-11-16T17:04:58.116Z,15.13
2017-11-16T17:07:24.858Z,16.00
2017-11-16T17:09:51.651Z,15.23
2017-11-16T17:12:18.523Z,18.33
2017-11-16T17:14:45.894Z,17.33
2017-11-16T17:17:12.998Z,16.92
2017-11-16T17:19:39.741Z,15.82
2017-11-16T17:22:06.972Z,16.75
2017-11-16T17:24:34.501Z,15.30
2017-11-16T17:27:00.741Z,15.10
2017-11-16T17:29:26.969Z,15.85
2017-11-16T17:31:54.152Z,15.18
2017-11-16T17:34:20.885Z,16.65
2017-11-16T17:36:48.707Z,14.35
2017-11-16T17:39:16.368Z,14.98
2017-11-16T17:41:43.361Z,14.68
2017-11-16T17:44:09.585Z,17.55
2017-11-16T17:46:37.170Z,17.10
2017-11-16T17:49:03.548Z,14.93
2017-11-16T17:51:30.004Z,14.18
2017-11-16T17:53:57.023Z,16.15
2017-11-16T17:56:23.301Z,13.27
2017-11-16T17:58:49.519Z,15.55
2017-11-16T18:01:15.786Z,16.60
2017-11-16T18:03:42.080Z,10.50
2017-11-16T18:06:08.314Z,12.52
2017-11-16T18:08:35.332Z,14.43
2017-11-16T18:11:02.307Z,15.23
2017-11-16T18:13:28.656Z,13.70
2017-11-16T18:15:56.057Z,15.60
2017-11-16T18:18:23.518Z,20.15
2017-11-16T18:20:50.474Z,43.35
2017-11-16T18:23:17.478Z,36.42
2017-11-16T18:25:44.130Z,34.38
2017-11-16T18:28:10.348Z,31.80
2017-11-16T18:30:37.513Z,27.70
2017-11-16T18:33:03.772Z,25.75
2017-11-16T18:35:29.992Z,16.65
2017-11-16T18:37:57.104Z,17.20
2017-11-16T18:40:23.368Z,17.95
2017-11-16T18:42:50.418Z,18.92
2017-11-16T18:45:17.843Z,18.30
2017-11-16T18:47:44.865Z,13.98
2017-11-16T18:50:11.172Z,15.05
2017-11-16T18:52:38.462Z,13.57
2017-11-16T18:55:05.703Z,12.55
2017-11-16T18:57:31.920Z,14.95
2017-11-16T18:59:58.182Z,13.10
2017-11-16T19:02:24.980Z,13.73
2017-11-16T19:04:51.210Z,19.45
2017-11-16T19:07:17.460Z,16.52
2017-11-16T19:09:44.237Z,12.93
2017-11-16T19:12:11.455Z,12.32
2017-11-16T19:14:37.825Z,10.82
2017-11-16T19:17:04.785Z,12.43
2017-11-16T19:19:31.068Z,15.30
2017-11-16T19:21:58.269Z,13.82
2017-11-16T19:24:25.059Z,15.85
2017-11-16T19:26:51.855Z,14.13
2017-11-16T19:29:18.085Z,14.63
2017-11-16T19:31:44.955Z,14.32
2017-11-16T19:34:12.850Z,12.32
2017-11-16T19:36:39.081Z,12.70
2017-11-16T19:39:06.499Z,14.13
2017-11-16T19:41:33.225Z,14.45
2017-11-16T19:44:00.018Z,14.85
2017-11-16T19:46:27.004Z,15.27
2017-11-16T19:48:53.237Z,16.87
2017-11-16T19:51:19.475Z,16.65
2017-11-16T19:53:45.695Z,15.43
2017-11-16T19:56:11.925Z,15.68
2017-11-16T19:58:38.184Z,15.43
2017-11-16T20:01:04.381Z,16.20
2017-11-16T20:03:30.609Z,13.32
2017-11-16T20:05:56.896Z,16.08
2017-11-16T20:08:23.866Z,15.82
2017-11-16T20:10:50.097Z,22.13
2017-11-16T20:13:16.898Z,20.60
2017-11-16T20:15:43.639Z,17.75
2017-11-16T20:18:10.058Z,17.00
2017-11-16T20:20:37.007Z,17.55
2017-11-16T20:23:04.243Z,17.20
2017-11-16T20:25:31.035Z,15.90
2017-11-16T20:27:57.785Z,16.30
2017-11-16T20:30:25.045Z,14.65
2017-11-16T20:32:51.938Z,17.10
2017-11-16T20:35:18.307Z,18.00
2017-11-16T20:37:47.330Z,18.75
2017-11-16T20:40:32.779Z,17.08
2017-11-16T20:43:05.873Z,14.00
2017-11-16T20:45:36.192Z,18.60
2017-11-16T20:48:21.152Z,16.85
2017-11-16T20:50:53.714Z,14.20
2017-11-16T20:53:23.712Z,16.30
2017-11-16T20:55:50.070Z,18.05
2017-11-16T20:58:16.928Z,18.20
2017-11-16T21:00:43.954Z,16.02
2017-11-16T21:03:10.972Z,16.67
2017-11-16T21:05:37.604Z,18.35
2017-11-16T21:08:03.847Z,14.63
2017-11-16T21:10:30.066Z,17.58
2017-11-16T21:12:56.328Z,17.30
2017-11-16T21:15:22.638Z,14.82
2017-11-16T21:17:49.409Z,14.60
2017-11-16T21:20:16.200Z,17.20
2017-11-16T21:22:42.968Z,18.67
2017-11-16T21:25:10.062Z,15.63
2017-11-16T21:27:36.977Z,16.25
2017-11-16T21:30:03.390Z,15.15
2017-11-16T21:32:31.011Z,18.00
2017-11-16T21:34:58.232Z,13.98
2017-11-16T21:37:24.499Z,13.82
2017-11-16T21:39:52.236Z,13.98
2017-11-16T21:42:18.980Z,15.05
2017-11-16T21:44:46.221Z,16.33
2017-11-16T21:47:13.542Z,16.48
2017-11-16T21:49:41.043Z,14.10
2017-11-16T21:52:07.753Z,18.92
2017-11-16T21:54:35.338Z,15.25
2017-11-16T21:57:02.083Z,15.43
2017-11-16T21:59:28.524Z,17.02
2017-11-16T22:01:55.550Z,20.80
2017-11-16T22:04:21.780Z,18.48
2017-11-16T22:06:48.619Z,16.50
2017-11-16T22:09:15.891Z,18.98
2017-11-16T22:11:42.085Z,16.45
2017-11-16T22:14:08.974Z,19.75
2017-11-16T22:16:35.741Z,19.35
2017-11-16T22:19:02.734Z,19.12
2017-11-16T22:21:29.449Z,15.50
2017-11-16T22:23:56.062Z,18.37
2017-11-16T22:26:23.708Z,20.37
2017-11-16T22:28:50.513Z,19.23
2017-11-16T22:31:17.193Z,18.23
2017-11-16T22:33:44.190Z,18.75
2017-11-16T22:36:10.588Z,16.80
2017-11-16T22:38:37.537Z,19.02
2017-11-16T22:41:04.625Z,19.45
2017-11-16T22:43:31.787Z,19.12
2017-11-16T22:45:58.644Z,16.95
2017-11-16T22:48:25.733Z,17.95
2017-11-16T22:50:52.687Z,19.48
2017-11-16T22:53:19.061Z,16.65
2017-11-16T22:55:46.663Z,19.65
2017-11-16T22:58:14.607Z,19.85
2017-11-16T23:00:41.623Z,20.80
2017-11-16T23:03:08.743Z,17.87
2017-11-16T23:05:35.872Z,20.98
2017-11-16T23:08:04.130Z,18.92
2017-11-16T23:10:30.784Z,19.40
2017-11-16T23:12:58.365Z,15.85
2017-11-16T23:15:24.593Z,21.08
2017-11-16T23:17:51.333Z,20.35
2017-11-16T23:20:18.207Z,20.23
2017-11-16T23:22:45.024Z,20.37
2017-11-16T23:25:11.657Z,17.83
2017-11-16T23:27:38.676Z,21.02
2017-11-16T23:30:06.596Z,18.90
2017-11-16T23:32:33.545Z,18.27
2017-11-16T23:35:01.009Z,18.80
2017-11-16T23:37:28.099Z,17.95
2017-11-16T23:39:55.694Z,18.75
2017-11-16T23:42:21.881Z,16.17
2017-11-16T23:44:49.607Z,17.62
2017-11-16T23:47:17.784Z,17.80
2017-11-16T23:49:45.336Z,20.55
2017-11-16T23:52:11.546Z,17.60
2017-11-16T23:54:38.347Z,21.85
2017-11-16T23:57:05.861Z,21.67
2017-11-16T23:59:32.267Z,19.35
